sensor_id;sensor_type;location;lat;lon;timestamp;pressure;altitude;pressure_sealevel;temperature;humidity
56040;BME280;43937;41.366;2.072;2023-05-20T00:00:41;100735.44;;;17.20;72.51
56040;BME280;43937;41.366;2.072;2023-05-20T00:03:06;100713.00;;;17.10;72.74
56040;BME280;43937;41.366;2.072;2023-05-20T00:05:31;100710.88;;;17.05;72.50
56040;BME280;43937;41.366;2.072;2023-05-20T00:07:57;100703.03;;;16.96;71.93
56040;BME280;43937;41.366;2.072;2023-05-20T00:10:23;100721.44;;;17.15;72.11
56040;BME280;43937;41.366;2.072;2023-05-20T00:12:49;100715.09;;;17.14;71.59
56040;BME280;43937;41.366;2.072;2023-05-20T00:15:14;100707.50;;;17.10;71.67
56040;BME280;43937;41.366;2.072;2023-05-20T00:17:40;100684.22;;;16.92;72.67
56040;BME280;43937;41.366;2.072;2023-05-20T00:20:06;100697.53;;;17.02;72.43
56040;BME280;43937;41.366;2.072;2023-05-20T00:22:32;100692.69;;;17.11;71.88
56040;BME280;43937;41.366;2.072;2023-05-20T00:24:58;100696.88;;;17.00;71.75
56040;BME280;43937;41.366;2.072;2023-05-20T00:27:23;100687.59;;;16.94;72.02
56040;BME280;43937;41.366;2.072;2023-05-20T00:29:48;100696.69;;;17.02;72.03
56040;BME280;43937;41.366;2.072;2023-05-20T00:32:14;100697.53;;;17.09;72.24
56040;BME280;43937;41.366;2.072;2023-05-20T00:34:42;100670.47;;;16.86;71.74
56040;BME280;43937;41.366;2.072;2023-05-20T00:37:07;100695.22;;;16.99;71.20
56040;BME280;43937;41.366;2.072;2023-05-20T00:39:33;100673.59;;;16.76;71.85
56040;BME280;43937;41.366;2.072;2023-05-20T00:41:58;100696.88;;;17.00;71.17
56040;BME280;43937;41.366;2.072;2023-05-20T00:44:26;100678.47;;;16.94;70.48
56040;BME280;43937;41.366;2.072;2023-05-20T00:47:34;100682.53;;;16.98;70.70
56040;BME280;43937;41.366;2.072;2023-05-20T00:50:01;100660.94;;;16.88;70.93
56040;BME280;43937;41.366;2.072;2023-05-20T00:52:31;100668.97;;;16.83;71.05
56040;BME280;43937;41.366;2.072;2023-05-20T00:54:57;100672.56;;;16.77;70.90
56040;BME280;43937;41.366;2.072;2023-05-20T00:57:24;100668.56;;;16.80;71.21
56040;BME280;43937;41.366;2.072;2023-05-20T01:00:46;100668.97;;;16.77;70.52
56040;BME280;43937;41.366;2.072;2023-05-20T01:03:11;100666.81;;;16.72;70.18
56040;BME280;43937;41.366;2.072;2023-05-20T01:05:37;100676.53;;;16.75;70.08
56040;BME280;43937;41.366;2.072;2023-05-20T01:08:02;100660.06;;;16.81;70.33
56040;BME280;43937;41.366;2.072;2023-05-20T01:10:28;100654.59;;;16.88;69.82
56040;BME280;43937;41.366;2.072;2023-05-20T01:12:57;100656.25;;;16.76;69.38
56040;BME280;43937;41.366;2.072;2023-05-20T01:15:26;100641.91;;;16.80;68.78
56040;BME280;43937;41.366;2.072;2023-05-20T01:17:57;100634.28;;;16.76;68.73
56040;BME280;43937;41.366;2.072;2023-05-20T01:21:01;100636.22;;;16.88;68.38
56040;BME280;43937;41.366;2.072;2023-05-20T01:23:40;100627.09;;;16.81;68.85
56040;BME280;43937;41.366;2.072;2023-05-20T01:26:53;100630.91;;;16.80;68.75
56040;BME280;43937;41.366;2.072;2023-05-20T01:29:22;100619.00;;;16.73;68.76
56040;BME280;43937;41.366;2.072;2023-05-20T01:31:47;100625.00;;;16.83;67.89
56040;BME280;43937;41.366;2.072;2023-05-20T01:34:14;100597.91;;;16.74;67.36
56040;BME280;43937;41.366;2.072;2023-05-20T01:37:07;100623.72;;;16.99;67.28
56040;BME280;43937;41.366;2.072;2023-05-20T01:39:35;100624.13;;;16.76;67.50
56040;BME280;43937;41.366;2.072;2023-05-20T01:42:02;100617.38;;;16.85;66.97
56040;BME280;43937;41.366;2.072;2023-05-20T01:44:29;100582.03;;;16.69;66.77
56040;BME280;43937;41.366;2.072;2023-05-20T01:48:48;100597.50;;;16.83;66.85
56040;BME280;43937;41.366;2.072;2023-05-20T01:51:14;100609.97;;;16.86;66.78
56040;BME280;43937;41.366;2.072;2023-05-20T01:53:40;100606.16;;;16.80;66.90
56040;BME280;43937;41.366;2.072;2023-05-20T01:56:05;100599.38;;;16.76;68.17
56040;BME280;43937;41.366;2.072;2023-05-20T01:58:31;100578.44;;;16.62;67.47
56040;BME280;43937;41.366;2.072;2023-05-20T02:02:08;100597.91;;;16.80;67.77
56040;BME280;43937;41.366;2.072;2023-05-20T02:04:33;100601.25;;;16.69;68.94
56040;BME280;43937;41.366;2.072;2023-05-20T02:06:59;100601.06;;;16.70;69.04
56040;BME280;43937;41.366;2.072;2023-05-20T02:09:24;100575.47;;;16.50;69.54
56040;BME280;43937;41.366;2.072;2023-05-20T02:11:50;100589.25;;;16.77;69.45
56040;BME280;43937;41.366;2.072;2023-05-20T02:14:15;100578.44;;;16.62;69.96
56040;BME280;43937;41.366;2.072;2023-05-20T02:16:41;100583.28;;;16.66;70.32
56040;BME280;43937;41.366;2.072;2023-05-20T02:19:06;100576.94;;;16.53;71.40
56040;BME280;43937;41.366;2.072;2023-05-20T02:21:40;100579.88;;;16.58;70.51
56040;BME280;43937;41.366;2.072;2023-05-20T02:24:06;100574.19;;;16.53;70.96
56040;BME280;43937;41.366;2.072;2023-05-20T02:26:32;100546.28;;;16.42;71.20
56040;BME280;43937;41.366;2.072;2023-05-20T02:29:48;100543.09;;;16.32;71.60
56040;BME280;43937;41.366;2.072;2023-05-20T02:32:14;100547.53;;;16.40;72.05
56040;BME280;43937;41.366;2.072;2023-05-20T02:34:39;100560.88;;;16.49;71.45
56040;BME280;43937;41.366;2.072;2023-05-20T02:37:05;100557.47;;;16.61;71.29
56040;BME280;43937;41.366;2.072;2023-05-20T02:39:30;100524.09;;;16.37;71.52
56040;BME280;43937;41.366;2.072;2023-05-20T02:41:56;100553.06;;;16.53;71.71
56040;BME280;43937;41.366;2.072;2023-05-20T02:44:21;100550.50;;;16.52;71.84
56040;BME280;43937;41.366;2.072;2023-05-20T02:46:46;100538.44;;;16.39;72.40
56040;BME280;43937;41.366;2.072;2023-05-20T02:49:12;100547.75;;;16.38;72.85
56040;BME280;43937;41.366;2.072;2023-05-20T02:51:39;100533.78;;;16.26;73.44
56040;BME280;43937;41.366;2.072;2023-05-20T02:54:05;100533.19;;;16.31;72.69
56040;BME280;43937;41.366;2.072;2023-05-20T02:56:30;100540.16;;;16.40;72.18
56040;BME280;43937;41.366;2.072;2023-05-20T02:58:56;100540.59;;;16.44;72.56
56040;BME280;43937;41.366;2.072;2023-05-20T03:01:22;100532.53;;;16.42;72.45
56040;BME280;43937;41.366;2.072;2023-05-20T03:03:47;100486.88;;;16.15;71.99
56040;BME280;43937;41.366;2.072;2023-05-20T03:06:13;100543.97;;;16.53;70.94
56040;BME280;43937;41.366;2.072;2023-05-20T03:08:39;100534.88;;;16.45;71.45
56040;BME280;43937;41.366;2.072;2023-05-20T03:11:06;100528.94;;;16.35;71.43
56040;BME280;43937;41.366;2.072;2023-05-20T03:13:32;100530.22;;;16.39;70.96
56040;BME280;43937;41.366;2.072;2023-05-20T03:15:59;100533.59;;;16.35;70.70
56040;BME280;43937;41.366;2.072;2023-05-20T03:18:25;100528.53;;;16.38;70.77
56040;BME280;43937;41.366;2.072;2023-05-20T03:20:52;100522.63;;;16.35;70.63
56040;BME280;43937;41.366;2.072;2023-05-20T03:23:18;100486.47;;;16.18;70.42
56040;BME280;43937;41.366;2.072;2023-05-20T03:25:43;100523.47;;;16.42;70.22
56040;BME280;43937;41.366;2.072;2023-05-20T03:28:09;100532.75;;;16.47;70.27
56040;BME280;43937;41.366;2.072;2023-05-20T03:30:35;100521.53;;;16.42;70.29
56040;BME280;43937;41.366;2.072;2023-05-20T03:33:00;100519.88;;;16.41;69.40
56040;BME280;43937;41.366;2.072;2023-05-20T03:35:38;100510.34;;;16.51;69.23
56040;BME280;43937;41.366;2.072;2023-05-20T03:38:03;100488.81;;;16.41;69.75
56040;BME280;43937;41.366;2.072;2023-05-20T03:40:29;100490.47;;;16.48;69.35
56040;BME280;43937;41.366;2.072;2023-05-20T03:42:54;100485.00;;;16.55;69.53
56040;BME280;43937;41.366;2.072;2023-05-20T03:45:20;100477.59;;;16.22;70.01
56040;BME280;43937;41.366;2.072;2023-05-20T03:47:45;100512.28;;;16.43;69.70
56040;BME280;43937;41.366;2.072;2023-05-20T03:50:11;100508.47;;;16.31;70.20
56040;BME280;43937;41.366;2.072;2023-05-20T03:52:36;100507.63;;;16.37;68.98
56040;BME280;43937;41.366;2.072;2023-05-20T03:55:02;100508.03;;;16.47;68.85
56040;BME280;43937;41.366;2.072;2023-05-20T03:57:28;100494.31;;;16.34;69.04
56040;BME280;43937;41.366;2.072;2023-05-20T03:59:54;100501.91;;;16.45;68.86
56040;BME280;43937;41.366;2.072;2023-05-20T04:02:19;100501.47;;;16.42;68.26
56040;BME280;43937;41.366;2.072;2023-05-20T04:04:45;100501.47;;;16.42;67.94
56040;BME280;43937;41.366;2.072;2023-05-20T04:07:11;100508.66;;;16.43;68.19
56040;BME280;43937;41.366;2.072;2023-05-20T04:09:37;100503.59;;;16.33;68.75
56040;BME280;43937;41.366;2.072;2023-05-20T04:12:03;100495.75;;;16.30;68.13
56040;BME280;43937;41.366;2.072;2023-05-20T04:14:29;100506.75;;;16.37;68.36
56040;BME280;43937;41.366;2.072;2023-05-20T04:16:55;100509.91;;;16.27;68.34
56040;BME280;43937;41.366;2.072;2023-05-20T04:19:21;100509.06;;;16.26;68.03
56040;BME280;43937;41.366;2.072;2023-05-20T04:21:48;100498.50;;;16.23;68.61
56040;BME280;43937;41.366;2.072;2023-05-20T04:24:13;100506.94;;;16.02;69.26
56040;BME280;43937;41.366;2.072;2023-05-20T04:26:39;100500.19;;;15.98;69.15
56040;BME280;43937;41.366;2.072;2023-05-20T04:29:04;100509.44;;;16.03;69.88
56040;BME280;43937;41.366;2.072;2023-05-20T04:31:30;100518.31;;;15.92;70.15
56040;BME280;43937;41.366;2.072;2023-05-20T04:33:56;100515.09;;;15.75;70.91
56040;BME280;43937;41.366;2.072;2023-05-20T04:36:22;100518.09;;;16.00;69.63
56040;BME280;43937;41.366;2.072;2023-05-20T04:38:56;100521.47;;;15.89;70.20
56040;BME280;43937;41.366;2.072;2023-05-20T04:41:21;100522.56;;;16.01;69.85
56040;BME280;43937;41.366;2.072;2023-05-20T04:43:46;100513.50;;;16.08;69.21
56040;BME280;43937;41.366;2.072;2023-05-20T04:46:14;100517.69;;;15.97;69.72
56040;BME280;43937;41.366;2.072;2023-05-20T04:48:40;100509.69;;;16.15;68.74
56040;BME280;43937;41.366;2.072;2023-05-20T04:51:05;100483.47;;;15.93;69.28
56040;BME280;43937;41.366;2.072;2023-05-20T04:53:31;100509.06;;;16.20;68.56
56040;BME280;43937;41.366;2.072;2023-05-20T04:55:57;100506.56;;;16.38;68.00
56040;BME280;43937;41.366;2.072;2023-05-20T04:58:23;100521.34;;;16.37;67.71
56040;BME280;43937;41.366;2.072;2023-05-20T05:00:50;100511.81;;;16.33;67.28
56040;BME280;43937;41.366;2.072;2023-05-20T05:03:16;100499.56;;;16.42;66.46
56040;BME280;43937;41.366;2.072;2023-05-20T05:05:42;100471.47;;;16.60;65.31
56040;BME280;43937;41.366;2.072;2023-05-20T05:08:08;100517.13;;;16.68;66.07
56040;BME280;43937;41.366;2.072;2023-05-20T05:12:30;100508.22;;;16.99;64.09
56040;BME280;43937;41.366;2.072;2023-05-20T05:14:55;100516.66;;;17.11;64.17
56040;BME280;43937;41.366;2.072;2023-05-20T05:17:22;100509.84;;;18.48;59.64
56040;BME280;43937;41.366;2.072;2023-05-20T05:19:48;100511.53;;;20.64;52.71
56040;BME280;43937;41.366;2.072;2023-05-20T05:22:13;100524.56;;;22.31;48.76
56040;BME280;43937;41.366;2.072;2023-05-20T05:24:39;100527.38;;;23.38;45.64
56040;BME280;43937;41.366;2.072;2023-05-20T05:27:04;100524.81;;;24.46;43.26
56040;BME280;43937;41.366;2.072;2023-05-20T05:29:30;100523.38;;;24.43;42.09
56040;BME280;43937;41.366;2.072;2023-05-20T05:31:55;100525.56;;;25.06;40.80
56040;BME280;43937;41.366;2.072;2023-05-20T05:34:21;100524.44;;;25.49;39.17
56040;BME280;43937;41.366;2.072;2023-05-20T05:36:46;100526.91;;;25.98;38.47
56040;BME280;43937;41.366;2.072;2023-05-20T05:39:12;100524.75;;;26.36;37.63
56040;BME280;43937;41.366;2.072;2023-05-20T05:41:37;100516.63;;;25.04;39.07
56040;BME280;43937;41.366;2.072;2023-05-20T05:44:03;100523.03;;;25.04;40.44
56040;BME280;43937;41.366;2.072;2023-05-20T05:46:28;100507.38;;;25.35;39.43
56040;BME280;43937;41.366;2.072;2023-05-20T05:48:54;100513.22;;;22.83;43.51
56040;BME280;43937;41.366;2.072;2023-05-20T05:51:19;100515.53;;;23.64;43.22
56040;BME280;43937;41.366;2.072;2023-05-20T05:53:45;100514.56;;;25.26;40.13
56040;BME280;43937;41.366;2.072;2023-05-20T05:56:10;100514.63;;;26.04;38.12
56040;BME280;43937;41.366;2.072;2023-05-20T05:58:37;100514.97;;;27.31;36.29
56040;BME280;43937;41.366;2.072;2023-05-20T06:01:02;100515.28;;;27.24;36.46
56040;BME280;43937;41.366;2.072;2023-05-20T06:03:28;100504.66;;;27.06;35.53
56040;BME280;43937;41.366;2.072;2023-05-20T06:05:54;100503.81;;;27.96;34.38
56040;BME280;43937;41.366;2.072;2023-05-20T06:08:20;100514.75;;;26.66;36.02
56040;BME280;43937;41.366;2.072;2023-05-20T06:10:48;100496.84;;;27.18;35.63
56040;BME280;43937;41.366;2.072;2023-05-20T06:13:15;100507.38;;;28.06;34.33
56040;BME280;43937;41.366;2.072;2023-05-20T06:15:40;100503.53;;;28.37;33.30
56040;BME280;43937;41.366;2.072;2023-05-20T06:18:06;100488.41;;;28.38;32.82
56040;BME280;43937;41.366;2.072;2023-05-20T06:21:22;100498.88;;;29.25;32.20
56040;BME280;43937;41.366;2.072;2023-05-20T06:23:48;100487.47;;;29.16;31.13
56040;BME280;43937;41.366;2.072;2023-05-20T06:26:14;100500.09;;;29.66;30.91
56040;BME280;43937;41.366;2.072;2023-05-20T06:28:39;100513.13;;;29.52;31.73
56040;BME280;43937;41.366;2.072;2023-05-20T06:31:05;100515.78;;;29.86;31.02
56040;BME280;43937;41.366;2.072;2023-05-20T06:33:30;100509.94;;;30.45;30.59
56040;BME280;43937;41.366;2.072;2023-05-20T06:35:57;100504.13;;;29.98;30.05
56040;BME280;43937;41.366;2.072;2023-05-20T06:38:23;100518.88;;;30.66;30.24
56040;BME280;43937;41.366;2.072;2023-05-20T06:40:48;100509.78;;;31.62;29.10
56040;BME280;43937;41.366;2.072;2023-05-20T06:43:15;100509.72;;;30.93;29.04
56040;BME280;43937;41.366;2.072;2023-05-20T06:45:40;100509.91;;;30.64;28.64
56040;BME280;43937;41.366;2.072;2023-05-20T06:48:06;100509.19;;;30.91;29.12
56040;BME280;43937;41.366;2.072;2023-05-20T06:50:31;100514.16;;;31.40;28.03
56040;BME280;43937;41.366;2.072;2023-05-20T06:52:57;100514.84;;;32.37;26.71
56040;BME280;43937;41.366;2.072;2023-05-20T06:55:22;100510.31;;;31.91;27.03
56040;BME280;43937;41.366;2.072;2023-05-20T06:57:48;100503.03;;;31.63;27.43
56040;BME280;43937;41.366;2.072;2023-05-20T07:00:14;100512.72;;;31.43;27.27
56040;BME280;43937;41.366;2.072;2023-05-20T07:02:40;100498.03;;;31.60;26.53
56040;BME280;43937;41.366;2.072;2023-05-20T07:05:06;100500.72;;;31.37;27.06
56040;BME280;43937;41.366;2.072;2023-05-20T07:07:32;100500.72;;;31.37;26.63
56040;BME280;43937;41.366;2.072;2023-05-20T07:09:58;100500.88;;;27.56;31.27
56040;BME280;43937;41.366;2.072;2023-05-20T07:12:23;100500.03;;;27.66;32.17
56040;BME280;43937;41.366;2.072;2023-05-20T07:14:49;100500.50;;;31.20;27.88
56040;BME280;43937;41.366;2.072;2023-05-20T07:17:14;100508.09;;;32.38;25.41
56040;BME280;43937;41.366;2.072;2023-05-20T07:19:40;100509.28;;;29.91;28.29
56040;BME280;43937;41.366;2.072;2023-05-20T07:22:06;100492.38;;;28.31;30.69
56040;BME280;43937;41.366;2.072;2023-05-20T07:24:31;100510.59;;;27.84;31.01
56040;BME280;43937;41.366;2.072;2023-05-20T07:26:57;100497.41;;;26.94;32.68
56040;BME280;43937;41.366;2.072;2023-05-20T07:29:22;100497.31;;;27.46;32.82
56040;BME280;43937;41.366;2.072;2023-05-20T07:31:48;100484.38;;;25.66;34.98
56040;BME280;43937;41.366;2.072;2023-05-20T07:34:13;100504.34;;;24.62;37.27
56040;BME280;43937;41.366;2.072;2023-05-20T07:36:39;100493.56;;;24.39;37.69
56040;BME280;43937;41.366;2.072;2023-05-20T07:39:05;100500.94;;;24.87;36.97
56040;BME280;43937;41.366;2.072;2023-05-20T07:41:31;100502.59;;;25.26;36.37
56040;BME280;43937;41.366;2.072;2023-05-20T07:43:56;100501.97;;;24.44;38.17
56040;BME280;43937;41.366;2.072;2023-05-20T07:46:21;100495.03;;;24.84;37.35
56040;BME280;43937;41.366;2.072;2023-05-20T07:48:47;100488.19;;;24.00;38.90
56040;BME280;43937;41.366;2.072;2023-05-20T07:51:12;100491.44;;;25.26;36.91
56040;BME280;43937;41.366;2.072;2023-05-20T07:53:38;100479.88;;;27.69;33.78
56040;BME280;43937;41.366;2.072;2023-05-20T07:56:04;100503.81;;;28.35;32.31
56040;BME280;43937;41.366;2.072;2023-05-20T07:58:30;100476.09;;;27.29;32.79
56040;BME280;43937;41.366;2.072;2023-05-20T08:00:56;100466.72;;;28.19;31.54
56040;BME280;43937;41.366;2.072;2023-05-20T08:03:21;100493.13;;;28.82;30.70
56040;BME280;43937;41.366;2.072;2023-05-20T08:05:47;100489.22;;;28.48;30.94
56040;BME280;43937;41.366;2.072;2023-05-20T08:08:13;100479.25;;;30.10;28.36
56040;BME280;43937;41.366;2.072;2023-05-20T08:10:38;100477.84;;;28.69;30.65
56040;BME280;43937;41.366;2.072;2023-05-20T08:13:04;100486.41;;;27.44;32.10
56040;BME280;43937;41.366;2.072;2023-05-20T08:15:29;100471.09;;;27.11;33.33
56040;BME280;43937;41.366;2.072;2023-05-20T08:17:55;100449.41;;;26.87;32.96
56040;BME280;43937;41.366;2.072;2023-05-20T08:20:21;100466.09;;;27.18;32.48
56040;BME280;43937;41.366;2.072;2023-05-20T08:22:46;100469.50;;;26.54;33.69
56040;BME280;43937;41.366;2.072;2023-05-20T08:25:12;100459.06;;;27.36;32.04
56040;BME280;43937;41.366;2.072;2023-05-20T08:27:38;100468.47;;;27.60;32.26
56040;BME280;43937;41.366;2.072;2023-05-20T08:30:05;100446.56;;;28.22;30.59
56040;BME280;43937;41.366;2.072;2023-05-20T08:32:34;100469.06;;;28.81;30.13
56040;BME280;43937;41.366;2.072;2023-05-20T08:35:00;100473.19;;;28.83;29.70
56040;BME280;43937;41.366;2.072;2023-05-20T08:37:27;100467.31;;;28.85;29.58
56040;BME280;43937;41.366;2.072;2023-05-20T08:39:53;100476.88;;;27.50;31.69
56040;BME280;43937;41.366;2.072;2023-05-20T08:42:22;100462.19;;;27.09;32.52
56040;BME280;43937;41.366;2.072;2023-05-20T08:44:50;100449.66;;;26.91;32.94
56040;BME280;43937;41.366;2.072;2023-05-20T08:47:18;100452.47;;;26.81;32.76
56040;BME280;43937;41.366;2.072;2023-05-20T08:49:44;100370.16;;;26.01;32.96
56040;BME280;43937;41.366;2.072;2023-05-20T08:52:11;100457.75;;;26.41;33.69
56040;BME280;43937;41.366;2.072;2023-05-20T08:54:45;100461.63;;;27.07;33.01
56040;BME280;43937;41.366;2.072;2023-05-20T08:57:12;100458.81;;;27.27;32.33
56040;BME280;43937;41.366;2.072;2023-05-20T08:59:42;100467.53;;;26.95;33.44
56040;BME280;43937;41.366;2.072;2023-05-20T09:02:08;100466.31;;;27.32;32.09
56040;BME280;43937;41.366;2.072;2023-05-20T09:04:35;100467.72;;;27.39;31.24
56040;BME280;43937;41.366;2.072;2023-05-20T09:07:01;100469.53;;;27.64;31.27
56040;BME280;43937;41.366;2.072;2023-05-20T09:09:26;100464.97;;;27.89;31.84
56040;BME280;43937;41.366;2.072;2023-05-20T09:11:52;100457.56;;;28.08;30.71
56040;BME280;43937;41.366;2.072;2023-05-20T09:14:17;100441.00;;;27.78;30.05
56040;BME280;43937;41.366;2.072;2023-05-20T09:16:43;100457.75;;;28.22;30.17
56040;BME280;43937;41.366;2.072;2023-05-20T09:19:09;100465.50;;;28.70;29.82
56040;BME280;43937;41.366;2.072;2023-05-20T09:21:34;100459.38;;;28.92;28.83
56040;BME280;43937;41.366;2.072;2023-05-20T09:24:03;100456.00;;;28.95;29.62
56040;BME280;43937;41.366;2.072;2023-05-20T09:26:29;100450.50;;;28.85;29.09
56040;BME280;43937;41.366;2.072;2023-05-20T09:28:55;100432.75;;;28.65;28.71
56040;BME280;43937;41.366;2.072;2023-05-20T09:31:29;100446.66;;;29.29;28.71
56040;BME280;43937;41.366;2.072;2023-05-20T09:33:55;100435.97;;;28.53;29.18
56040;BME280;43937;41.366;2.072;2023-05-20T09:36:22;100448.22;;;28.63;28.27
56040;BME280;43937;41.366;2.072;2023-05-20T09:38:51;100421.03;;;28.29;28.97
56040;BME280;43937;41.366;2.072;2023-05-20T09:42:24;100445.97;;;27.86;29.68
56040;BME280;43937;41.366;2.072;2023-05-20T09:44:54;100420.16;;;28.34;30.27
56040;BME280;43937;41.366;2.072;2023-05-20T09:47:22;100426.94;;;28.27;30.34
56040;BME280;43937;41.366;2.072;2023-05-20T09:49:51;100440.84;;;28.72;30.00
56040;BME280;43937;41.366;2.072;2023-05-20T09:52:17;100442.06;;;28.90;28.96
56040;BME280;43937;41.366;2.072;2023-05-20T09:54:43;100420.72;;;28.65;28.39
56040;BME280;43937;41.366;2.072;2023-05-20T09:57:08;100440.97;;;29.39;29.02
56040;BME280;43937;41.366;2.072;2023-05-20T09:59:36;100427.34;;;29.51;28.27
56040;BME280;43937;41.366;2.072;2023-05-20T10:02:02;100429.53;;;29.11;28.37
56040;BME280;43937;41.366;2.072;2023-05-20T10:04:29;100435.09;;;29.59;28.02
56040;BME280;43937;41.366;2.072;2023-05-20T10:07:11;100441.72;;;29.69;26.90
56040;BME280;43937;41.366;2.072;2023-05-20T10:10:14;100438.66;;;30.41;26.02
56040;BME280;43937;41.366;2.072;2023-05-20T10:13:12;100448.09;;;29.93;26.79
56040;BME280;43937;41.366;2.072;2023-05-20T10:20:59;100441.75;;;31.60;25.17
56040;BME280;43937;41.366;2.072;2023-05-20T10:23:29;100437.81;;;31.47;24.18
56040;BME280;43937;41.366;2.072;2023-05-20T10:25:56;100441.84;;;31.13;25.08
56040;BME280;43937;41.366;2.072;2023-05-20T10:30:55;100420.56;;;30.47;26.21
56040;BME280;43937;41.366;2.072;2023-05-20T10:33:21;100419.84;;;30.41;25.83
56040;BME280;43937;41.366;2.072;2023-05-20T10:35:49;100442.84;;;30.05;25.91
56040;BME280;43937;41.366;2.072;2023-05-20T10:38:16;100434.22;;;30.21;26.14
56040;BME280;43937;41.366;2.072;2023-05-20T10:40:41;100438.72;;;30.87;26.15
56040;BME280;43937;41.366;2.072;2023-05-20T10:43:14;100425.94;;;30.76;27.74
56040;BME280;43937;41.366;2.072;2023-05-20T10:45:51;100431.97;;;31.02;29.08
56040;BME280;43937;41.366;2.072;2023-05-20T10:48:29;100430.72;;;30.29;30.25
56040;BME280;43937;41.366;2.072;2023-05-20T10:51:12;100424.75;;;30.82;29.84
56040;BME280;43937;41.366;2.072;2023-05-20T10:53:39;100428.09;;;30.84;29.85
56040;BME280;43937;41.366;2.072;2023-05-20T10:56:15;100419.56;;;30.56;30.15
56040;BME280;43937;41.366;2.072;2023-05-20T10:58:41;100421.56;;;30.70;30.14
56040;BME280;43937;41.366;2.072;2023-05-20T11:01:09;100420.09;;;30.26;30.05
56040;BME280;43937;41.366;2.072;2023-05-20T11:03:35;100418.16;;;29.45;31.14
56040;BME280;43937;41.366;2.072;2023-05-20T11:06:01;100407.50;;;30.04;30.41
56040;BME280;43937;41.366;2.072;2023-05-20T11:08:34;100397.88;;;29.92;31.30
56040;BME280;43937;41.366;2.072;2023-05-20T11:11:00;100400.97;;;30.28;29.76
56040;BME280;43937;41.366;2.072;2023-05-20T11:13:26;100383.31;;;30.08;30.13
56040;BME280;43937;41.366;2.072;2023-05-20T11:15:51;100393.34;;;31.08;28.66
56040;BME280;43937;41.366;2.072;2023-05-20T11:18:16;100403.22;;;30.91;29.46
56040;BME280;43937;41.366;2.072;2023-05-20T11:20:42;100403.44;;;31.09;28.65
56040;BME280;43937;41.366;2.072;2023-05-20T11:23:13;100388.47;;;30.67;29.16
56040;BME280;43937;41.366;2.072;2023-05-20T11:25:39;100391.66;;;31.07;28.62
56040;BME280;43937;41.366;2.072;2023-05-20T11:28:14;100384.09;;;30.61;28.77
56040;BME280;43937;41.366;2.072;2023-05-20T11:30:42;100392.44;;;30.66;29.12
56040;BME280;43937;41.366;2.072;2023-05-20T11:33:11;100392.44;;;30.66;28.97
56040;BME280;43937;41.366;2.072;2023-05-20T11:35:49;100389.03;;;30.83;28.76
56040;BME280;43937;41.366;2.072;2023-05-20T11:38:15;100386.09;;;30.60;29.42
56040;BME280;43937;41.366;2.072;2023-05-20T11:40:54;100390.31;;;30.90;29.61
56040;BME280;43937;41.366;2.072;2023-05-20T11:43:20;100379.59;;;31.20;28.55
56040;BME280;43937;41.366;2.072;2023-05-20T11:45:56;100390.00;;;31.83;26.92
56040;BME280;43937;41.366;2.072;2023-05-20T11:48:25;100377.56;;;32.21;26.82
56040;BME280;43937;41.366;2.072;2023-05-20T11:50:52;100378.22;;;31.17;27.69
56040;BME280;43937;41.366;2.072;2023-05-20T11:53:20;100381.59;;;31.69;27.52
56040;BME280;43937;41.366;2.072;2023-05-20T11:55:56;100379.94;;;32.05;27.16
56040;BME280;43937;41.366;2.072;2023-05-20T11:58:29;100389.06;;;32.33;26.55
56040;BME280;43937;41.366;2.072;2023-05-20T12:00:55;100379.81;;;32.32;25.77
56040;BME280;43937;41.366;2.072;2023-05-20T12:03:21;100383.75;;;32.31;25.59
56040;BME280;43937;41.366;2.072;2023-05-20T12:05:46;100382.06;;;32.75;24.65
56040;BME280;43937;41.366;2.072;2023-05-20T12:08:13;100381.22;;;32.21;25.32
56040;BME280;43937;41.366;2.072;2023-05-20T12:10:39;100381.41;;;31.66;25.99
56040;BME280;43937;41.366;2.072;2023-05-20T12:13:04;100366.13;;;31.44;25.95
56040;BME280;43937;41.366;2.072;2023-05-20T12:15:36;100385.03;;;31.66;26.35
56040;BME280;43937;41.366;2.072;2023-05-20T12:18:02;100374.59;;;31.44;26.16
56040;BME280;43937;41.366;2.072;2023-05-20T12:20:28;100383.97;;;31.76;26.18
56040;BME280;43937;41.366;2.072;2023-05-20T12:22:55;100372.22;;;30.50;27.86
56040;BME280;43937;41.366;2.072;2023-05-20T12:25:20;100374.84;;;30.74;26.68
56040;BME280;43937;41.366;2.072;2023-05-20T12:27:47;100369.16;;;30.79;27.78
56040;BME280;43937;41.366;2.072;2023-05-20T12:30:17;100376.84;;;29.51;29.19
56040;BME280;43937;41.366;2.072;2023-05-20T12:32:43;100374.03;;;29.32;29.07
56040;BME280;43937;41.366;2.072;2023-05-20T12:35:10;100373.84;;;30.37;28.66
56040;BME280;43937;41.366;2.072;2023-05-20T12:37:36;100362.94;;;30.35;28.08
56040;BME280;43937;41.366;2.072;2023-05-20T12:40:02;100357.47;;;29.93;28.20
56040;BME280;43937;41.366;2.072;2023-05-20T12:42:34;100373.75;;;29.10;28.90
56040;BME280;43937;41.366;2.072;2023-05-20T12:44:59;100361.78;;;29.04;29.70
56040;BME280;43937;41.366;2.072;2023-05-20T12:47:25;100358.63;;;28.87;30.42
56040;BME280;43937;41.366;2.072;2023-05-20T12:49:50;100369.69;;;28.73;32.27
56040;BME280;43937;41.366;2.072;2023-05-20T12:52:16;100368.31;;;28.70;30.98
56040;BME280;43937;41.366;2.072;2023-05-20T12:54:41;100362.44;;;28.38;32.43
56040;BME280;43937;41.366;2.072;2023-05-20T12:57:07;100367.72;;;28.73;31.98
56040;BME280;43937;41.366;2.072;2023-05-20T12:59:32;100369.38;;;28.74;32.84
56040;BME280;43937;41.366;2.072;2023-05-20T13:01:58;100391.84;;;28.06;31.47
56040;BME280;43937;41.366;2.072;2023-05-20T13:04:23;100377.50;;;28.47;32.87
56040;BME280;43937;41.366;2.072;2023-05-20T13:06:49;100384.16;;;27.88;33.98